VTK601 UUEE-UHMM
Flight info
| Callsign | VTK601 |
|---|---|
| Flight time | 6h 39m |
| Altitude | 35000 |
| Route | RILPO3J RILPO T753 TUNOB T791 NAZOL T187 GONIB T791 UHT T816 OSVOD B927 RIKUB/K0907F370 B927 TERKI TERKI5J |
| Aircraft | B77W/H-SDE1E2E3FGHIJ2J3J4J5M1RWXY/LB1D1 |
Departure
| Time | 2026-04-24 08:32 |
|---|---|
| Airport | Sheremetyevo International Airport (UUEE) |
Arrival
| Time | 2026-04-24 15:11 |
|---|---|
| Airport | Sokol Airport (UHMM) |
| Time | Latitude | Longitude | Altitude | Speed | Heading |
|---|---|---|---|---|---|
| 2026-04-24 08:20 | 55.98018 | 37.41839 | 644 ft | 0 kts | 255° |
| 2026-04-24 08:25 | 55.98018 | 37.41840 | 644 ft | 2 kts | 255° |
| 2026-04-24 08:26 | 55.98024 | 37.41878 | 644 ft | 4 kts | 255° |
| 2026-04-24 08:26 | 55.98031 | 37.41922 | 644 ft | 4 kts | 245° |
| 2026-04-24 08:26 | 55.98047 | 37.41956 | 644 ft | 4 kts | 205° |
| 2026-04-24 08:26 | 55.98066 | 37.41963 | 649 ft | 0 kts | 170° |
| 2026-04-24 08:28 | 55.98051 | 37.41968 | 644 ft | 8 kts | 168° |
| 2026-04-24 08:28 | 55.97950 | 37.42013 | 648 ft | 21 kts | 165° |
| 2026-04-24 08:28 | 55.97788 | 37.42090 | 645 ft | 20 kts | 165° |
| 2026-04-24 08:28 | 55.97689 | 37.42220 | 650 ft | 19 kts | 89° |
| 2026-04-24 08:29 | 55.97727 | 37.42459 | 645 ft | 21 kts | 75° |
| 2026-04-24 08:29 | 55.97764 | 37.42723 | 649 ft | 23 kts | 75° |
| 2026-04-24 08:29 | 55.97807 | 37.43004 | 647 ft | 24 kts | 75° |
| 2026-04-24 08:29 | 55.97853 | 37.43302 | 645 ft | 25 kts | 75° |
| 2026-04-24 08:30 | 55.97901 | 37.43614 | 648 ft | 27 kts | 75° |
| 2026-04-24 08:30 | 55.97943 | 37.43898 | 645 ft | 19 kts | 81° |
| 2026-04-24 08:30 | 55.97867 | 37.44053 | 644 ft | 17 kts | 168° |
| 2026-04-24 08:30 | 55.97774 | 37.43948 | 649 ft | 17 kts | 247° |
| 2026-04-24 08:31 | 55.97766 | 37.43905 | 646 ft | 0 kts | 252° |
| 2026-04-24 08:31 | 55.97737 | 37.43729 | 647 ft | 45 kts | 255° |
| 2026-04-24 08:31 | 55.97594 | 37.42752 | 644 ft | 116 kts | 255° |
| 2026-04-24 08:32 | 55.97335 | 37.41001 | 652 ft | 172 kts | 256° |
| 2026-04-24 08:32 | 55.96990 | 37.38785 | 851 ft | 197 kts | 257° |
| 2026-04-24 08:32 | 55.96466 | 37.36385 | 1190 ft | 217 kts | 243° |
| 2026-04-24 08:32 | 55.95612 | 37.34131 | 1916 ft | 222 kts | 236° |
| 2026-04-24 08:33 | 55.94627 | 37.31839 | 2273 ft | 243 kts | 237° |
| 2026-04-24 08:33 | 55.93611 | 37.29384 | 2916 ft | 249 kts | 238° |
| 2026-04-24 08:33 | 55.92591 | 37.26842 | 3690 ft | 253 kts | 238° |
| 2026-04-24 08:33 | 55.91573 | 37.24270 | 4479 ft | 256 kts | 239° |
| 2026-04-24 08:34 | 55.90448 | 37.21782 | 5089 ft | 264 kts | 223° |
| 2026-04-24 08:34 | 55.88761 | 37.20447 | 5750 ft | 272 kts | 185° |
| 2026-04-24 08:34 | 55.86904 | 37.20954 | 6388 ft | 274 kts | 152° |
| 2026-04-24 08:34 | 55.85356 | 37.22866 | 6578 ft | 273 kts | 134° |
| 2026-04-24 08:35 | 55.84278 | 37.25576 | 6576 ft | 267 kts | 104° |
| 2026-04-24 08:35 | 55.84125 | 37.28787 | 6600 ft | 260 kts | 74° |
| 2026-04-24 08:35 | 55.84747 | 37.31799 | 7025 ft | 261 kts | 56° |
| 2026-04-24 08:35 | 55.85795 | 37.34423 | 7642 ft | 262 kts | 48° |
| 2026-04-24 08:36 | 55.86975 | 37.36921 | 8310 ft | 266 kts | 47° |
| 2026-04-24 08:36 | 55.88171 | 37.39421 | 8598 ft | 265 kts | 47° |
| 2026-04-24 08:36 | 55.89370 | 37.41953 | 8586 ft | 267 kts | 47° |
| 2026-04-24 08:36 | 55.90560 | 37.44494 | 8583 ft | 267 kts | 48° |
| 2026-04-24 08:37 | 55.91743 | 37.47049 | 8580 ft | 267 kts | 47° |
| 2026-04-24 08:37 | 55.92916 | 37.49605 | 8582 ft | 267 kts | 48° |
| 2026-04-24 08:37 | 55.94085 | 37.52169 | 8545 ft | 266 kts | 47° |
| 2026-04-24 08:37 | 55.95374 | 37.54551 | 8871 ft | 267 kts | 41° |
| 2026-04-24 08:38 | 55.96742 | 37.56794 | 9485 ft | 268 kts | 40° |
| 2026-04-24 08:38 | 55.98125 | 37.59051 | 9535 ft | 270 kts | 40° |
| 2026-04-24 08:38 | 55.99502 | 37.61320 | 9539 ft | 269 kts | 41° |
| 2026-04-24 08:38 | 56.00876 | 37.63602 | 9545 ft | 271 kts | 41° |
| 2026-04-24 08:39 | 56.02251 | 37.65901 | 9556 ft | 271 kts | 41° |
| 2026-04-24 08:39 | 56.03617 | 37.68194 | 9549 ft | 269 kts | 41° |
| 2026-04-24 08:39 | 56.04976 | 37.70484 | 9547 ft | 268 kts | 41° |
| 2026-04-24 08:39 | 56.06328 | 37.72769 | 9544 ft | 267 kts | 41° |
| 2026-04-24 08:40 | 56.07676 | 37.75045 | 9542 ft | 266 kts | 40° |
| 2026-04-24 08:40 | 56.09020 | 37.77318 | 9543 ft | 266 kts | 41° |
| 2026-04-24 08:40 | 56.10327 | 37.79666 | 9540 ft | 267 kts | 44° |
| 2026-04-24 08:40 | 56.11601 | 37.82085 | 9547 ft | 267 kts | 44° |
| 2026-04-24 08:41 | 56.12874 | 37.84512 | 9546 ft | 268 kts | 44° |
| 2026-04-24 08:41 | 56.14289 | 37.86578 | 9533 ft | 261 kts | 23° |
| 2026-04-24 08:41 | 56.16058 | 37.87401 | 9773 ft | 268 kts | 5° |
| 2026-04-24 08:41 | 56.17994 | 37.87671 | 9961 ft | 291 kts | 5° |
| 2026-04-24 08:42 | 56.20062 | 37.87969 | 10168 ft | 313 kts | 5° |
| 2026-04-24 08:42 | 56.22344 | 37.88298 | 10345 ft | 337 kts | 5° |
| 2026-04-24 08:42 | 56.24724 | 37.88657 | 10900 ft | 348 kts | 5° |
| 2026-04-24 08:42 | 56.27137 | 37.89024 | 11600 ft | 357 kts | 5° |
| 2026-04-24 08:43 | 56.29617 | 37.89379 | 12543 ft | 362 kts | 4° |
| 2026-04-24 08:43 | 56.32156 | 37.89703 | 13362 ft | 369 kts | 4° |
| 2026-04-24 08:43 | 56.34747 | 37.90031 | 14019 ft | 378 kts | 4° |
| 2026-04-24 08:43 | 56.37401 | 37.90374 | 14723 ft | 386 kts | 4° |
| 2026-04-24 08:44 | 56.40100 | 37.90734 | 15466 ft | 392 kts | 4° |
| 2026-04-24 08:44 | 56.42845 | 37.91104 | 16231 ft | 399 kts | 4° |
| 2026-04-24 08:44 | 56.45640 | 37.91483 | 16932 ft | 406 kts | 4° |
| 2026-04-24 08:44 | 56.48482 | 37.91868 | 17657 ft | 413 kts | 4° |
| 2026-04-24 08:45 | 56.51362 | 37.92263 | 18418 ft | 416 kts | 4° |
| 2026-04-24 08:45 | 56.54205 | 37.92653 | 19586 ft | 405 kts | 4° |
| 2026-04-24 08:45 | 56.56983 | 37.93030 | 20780 ft | 398 kts | 4° |
| 2026-04-24 08:45 | 56.59763 | 37.93408 | 21404 ft | 405 kts | 4° |
| 2026-04-24 08:46 | 56.62604 | 37.93794 | 21906 ft | 414 kts | 4° |
| 2026-04-24 08:46 | 56.65499 | 37.94194 | 22474 ft | 418 kts | 5° |
| 2026-04-24 08:46 | 56.68344 | 37.95163 | 22989 ft | 420 kts | 20° |
| 2026-04-24 08:46 | 56.70917 | 37.97710 | 23521 ft | 425 kts | 37° |
| 2026-04-24 08:47 | 56.73087 | 38.01367 | 24052 ft | 427 kts | 44° |
| 2026-04-24 08:47 | 56.75186 | 38.05242 | 24481 ft | 432 kts | 44° |
| 2026-04-24 08:47 | 56.77311 | 38.09161 | 24950 ft | 436 kts | 43° |
| 2026-04-24 08:47 | 56.79463 | 38.13095 | 25441 ft | 440 kts | 43° |
| 2026-04-24 08:48 | 56.80900 | 38.15707 | 25772 ft | 442 kts | 43° |
| 2026-04-24 08:48 | 56.83091 | 38.19669 | 26236 ft | 445 kts | 43° |
| 2026-04-24 08:48 | 56.85307 | 38.23671 | 26657 ft | 450 kts | 43° |
| 2026-04-24 08:48 | 56.87557 | 38.27719 | 26941 ft | 458 kts | 42° |
| 2026-04-24 08:49 | 56.89920 | 38.31651 | 27346 ft | 461 kts | 39° |
| 2026-04-24 08:49 | 56.92363 | 38.35460 | 27837 ft | 462 kts | 38° |
| 2026-04-24 08:49 | 56.94839 | 38.39240 | 28293 ft | 464 kts | 38° |
| 2026-04-24 08:49 | 56.97329 | 38.43043 | 28671 ft | 468 kts | 38° |
| 2026-04-24 08:50 | 56.99829 | 38.46895 | 29009 ft | 471 kts | 38° |
| 2026-04-24 08:50 | 57.02334 | 38.50792 | 29345 ft | 474 kts | 39° |
| 2026-04-24 08:50 | 57.04852 | 38.54741 | 29707 ft | 476 kts | 39° |
| 2026-04-24 08:50 | 57.07364 | 38.58704 | 30041 ft | 477 kts | 39° |
| 2026-04-24 08:51 | 57.09886 | 38.62699 | 30294 ft | 480 kts | 39° |
| 2026-04-24 08:51 | 57.12412 | 38.66709 | 30643 ft | 480 kts | 39° |
| 2026-04-24 08:51 | 57.14937 | 38.70719 | 31049 ft | 479 kts | 39° |
| 2026-04-24 08:51 | 57.17455 | 38.74723 | 31428 ft | 478 kts | 39° |
| 2026-04-24 08:52 | 57.19966 | 38.78727 | 31774 ft | 478 kts | 39° |
| 2026-04-24 08:52 | 57.22480 | 38.82745 | 32104 ft | 478 kts | 39° |
| 2026-04-24 08:52 | 57.24995 | 38.86769 | 32440 ft | 478 kts | 39° |
| 2026-04-24 08:52 | 57.27507 | 38.90794 | 32771 ft | 478 kts | 39° |
| 2026-04-24 08:53 | 57.30022 | 38.94830 | 33060 ft | 479 kts | 40° |
| 2026-04-24 08:53 | 57.32539 | 38.98881 | 33308 ft | 480 kts | 39° |
| 2026-04-24 08:53 | 57.35059 | 39.02942 | 33606 ft | 480 kts | 39° |
| 2026-04-24 08:53 | 57.37575 | 39.07000 | 33883 ft | 480 kts | 39° |
| 2026-04-24 08:54 | 57.40090 | 39.11064 | 34156 ft | 479 kts | 40° |
| 2026-04-24 08:54 | 57.42598 | 39.15133 | 34402 ft | 479 kts | 40° |
| 2026-04-24 08:54 | 57.45117 | 39.19226 | 34466 ft | 483 kts | 40° |
| 2026-04-24 08:55 | 57.50177 | 39.27465 | 34541 ft | 482 kts | 40° |
| 2026-04-24 08:55 | 57.55214 | 39.35671 | 34533 ft | 480 kts | 40° |
| 2026-04-24 08:56 | 57.60235 | 39.43893 | 34538 ft | 480 kts | 40° |
| 2026-04-24 08:56 | 57.65246 | 39.52134 | 34536 ft | 480 kts | 40° |
| 2026-04-24 08:57 | 57.70256 | 39.60402 | 34540 ft | 480 kts | 40° |
| 2026-04-24 08:57 | 57.75267 | 39.68701 | 34541 ft | 482 kts | 40° |
| 2026-04-24 08:58 | 57.80283 | 39.77041 | 34535 ft | 483 kts | 40° |
| 2026-04-24 08:58 | 57.85307 | 39.85428 | 34531 ft | 483 kts | 40° |
| 2026-04-24 08:59 | 57.90325 | 39.93851 | 34541 ft | 484 kts | 40° |
| 2026-04-24 08:59 | 57.95333 | 40.02339 | 34543 ft | 485 kts | 41° |
| 2026-04-24 09:00 | 58.00342 | 40.10870 | 34543 ft | 485 kts | 40° |
| 2026-04-24 09:00 | 58.05355 | 40.19434 | 34543 ft | 486 kts | 41° |
| 2026-04-24 09:01 | 58.10370 | 40.28025 | 34541 ft | 487 kts | 41° |
| 2026-04-24 09:01 | 58.15382 | 40.36644 | 34536 ft | 487 kts | 41° |
| 2026-04-24 09:02 | 58.20394 | 40.45264 | 34539 ft | 486 kts | 40° |
| 2026-04-24 09:02 | 58.25424 | 40.53859 | 34539 ft | 486 kts | 41° |
| 2026-04-24 09:03 | 58.30447 | 40.62474 | 34536 ft | 486 kts | 40° |
| 2026-04-24 09:03 | 58.35456 | 40.71114 | 34535 ft | 486 kts | 41° |
| 2026-04-24 09:04 | 58.40459 | 40.79780 | 34534 ft | 487 kts | 41° |
| 2026-04-24 09:04 | 58.45467 | 40.88494 | 34541 ft | 488 kts | 41° |
| 2026-04-24 09:05 | 58.50483 | 40.97254 | 34543 ft | 489 kts | 41° |
| 2026-04-24 09:05 | 58.55498 | 41.06050 | 34542 ft | 489 kts | 41° |
| 2026-04-24 09:06 | 58.60517 | 41.14888 | 34547 ft | 491 kts | 41° |
| 2026-04-24 09:06 | 58.65545 | 41.23783 | 34543 ft | 492 kts | 41° |
| 2026-04-24 09:07 | 58.70581 | 41.32722 | 34544 ft | 493 kts | 41° |
| 2026-04-24 09:07 | 58.78225 | 41.46040 | 34539 ft | 494 kts | 37° |
| 2026-04-24 09:08 | 58.83749 | 41.53909 | 34548 ft | 494 kts | 35° |
| 2026-04-24 09:08 | 58.89323 | 41.61711 | 34545 ft | 495 kts | 35° |
| 2026-04-24 09:09 | 58.94882 | 41.69608 | 34542 ft | 496 kts | 35° |
| 2026-04-24 09:09 | 59.00438 | 41.77586 | 34539 ft | 497 kts | 35° |
| 2026-04-24 09:10 | 59.06026 | 41.85652 | 34550 ft | 497 kts | 36° |
| 2026-04-24 09:10 | 59.11572 | 41.93697 | 34547 ft | 497 kts | 36° |
| 2026-04-24 09:11 | 59.17105 | 42.01746 | 34542 ft | 496 kts | 36° |
| 2026-04-24 09:11 | 59.22629 | 42.09818 | 34545 ft | 496 kts | 36° |
| 2026-04-24 09:12 | 59.28141 | 42.17904 | 34549 ft | 495 kts | 36° |
| 2026-04-24 09:12 | 59.33644 | 42.26009 | 34532 ft | 495 kts | 36° |
| 2026-04-24 09:13 | 59.39033 | 42.34443 | 34551 ft | 497 kts | 43° |
| 2026-04-24 09:13 | 59.43751 | 42.44411 | 34557 ft | 499 kts | 48° |
| 2026-04-24 09:14 | 59.48360 | 42.54655 | 34541 ft | 501 kts | 47° |
| 2026-04-24 09:14 | 59.53008 | 42.64895 | 34534 ft | 502 kts | 47° |
| 2026-04-24 09:15 | 59.57681 | 42.75143 | 34536 ft | 503 kts | 47° |
| 2026-04-24 09:15 | 59.62354 | 42.85436 | 34535 ft | 503 kts | 47° |
| 2026-04-24 09:16 | 59.67017 | 42.95761 | 34550 ft | 503 kts | 47° |
| 2026-04-24 09:16 | 59.71668 | 43.06095 | 34536 ft | 502 kts | 48° |
| 2026-04-24 09:17 | 59.76303 | 43.16460 | 34534 ft | 503 kts | 48° |
| 2026-04-24 09:17 | 59.80941 | 43.26849 | 34534 ft | 502 kts | 48° |
| 2026-04-24 09:18 | 59.85566 | 43.37251 | 34531 ft | 502 kts | 48° |
| 2026-04-24 09:18 | 59.90147 | 43.47600 | 34535 ft | 502 kts | 48° |
| 2026-04-24 09:19 | 59.94757 | 43.58056 | 34532 ft | 502 kts | 49° |
| 2026-04-24 09:19 | 59.99366 | 43.68555 | 34528 ft | 503 kts | 49° |
| 2026-04-24 09:20 | 60.03978 | 43.79087 | 34527 ft | 504 kts | 49° |
| 2026-04-24 09:20 | 60.08591 | 43.89664 | 34523 ft | 505 kts | 49° |
| 2026-04-24 09:21 | 60.13198 | 44.00292 | 34521 ft | 505 kts | 49° |
| 2026-04-24 09:21 | 60.17803 | 44.10958 | 34521 ft | 506 kts | 49° |
| 2026-04-24 09:22 | 60.22405 | 44.21661 | 34517 ft | 506 kts | 49° |
| 2026-04-24 09:22 | 60.27001 | 44.32401 | 34517 ft | 506 kts | 49° |
| 2026-04-24 09:23 | 60.31587 | 44.43174 | 34519 ft | 507 kts | 49° |
| 2026-04-24 09:23 | 60.36168 | 44.54000 | 34517 ft | 507 kts | 49° |
| 2026-04-24 09:24 | 60.40747 | 44.64854 | 34513 ft | 506 kts | 50° |
| 2026-04-24 09:24 | 60.45307 | 44.75719 | 34509 ft | 506 kts | 50° |
| 2026-04-24 09:25 | 60.49848 | 44.86592 | 34512 ft | 504 kts | 50° |
| 2026-04-24 09:25 | 60.54375 | 44.97480 | 34515 ft | 504 kts | 50° |
| 2026-04-24 09:26 | 60.58896 | 45.08403 | 34508 ft | 505 kts | 50° |
| 2026-04-24 09:26 | 60.63414 | 45.19376 | 34509 ft | 507 kts | 50° |
| 2026-04-24 09:27 | 60.67925 | 45.30439 | 34509 ft | 509 kts | 50° |
| 2026-04-24 09:27 | 60.72441 | 45.41576 | 34503 ft | 509 kts | 50° |
| 2026-04-24 09:28 | 60.76232 | 45.50915 | 34500 ft | 509 kts | 50° |
| 2026-04-24 09:28 | 60.80736 | 45.61965 | 34496 ft | 509 kts | 50° |
| 2026-04-24 09:29 | 60.85295 | 45.73177 | 34497 ft | 509 kts | 50° |
| 2026-04-24 09:29 | 60.89809 | 45.84358 | 34497 ft | 508 kts | 50° |
| 2026-04-24 09:30 | 60.93365 | 45.93205 | 34493 ft | 509 kts | 51° |
| 2026-04-24 09:30 | 60.97110 | 46.02566 | 34499 ft | 509 kts | 51° |
| 2026-04-24 09:31 | 61.01600 | 46.13847 | 34488 ft | 509 kts | 51° |
| 2026-04-24 09:31 | 61.06075 | 46.25173 | 34492 ft | 509 kts | 51° |
| 2026-04-24 09:32 | 61.10504 | 46.36617 | 34489 ft | 510 kts | 52° |
| 2026-04-24 09:32 | 61.14928 | 46.48123 | 34486 ft | 511 kts | 52° |
| 2026-04-24 09:33 | 61.19356 | 46.59658 | 34481 ft | 511 kts | 52° |
| 2026-04-24 09:33 | 61.23771 | 46.71212 | 34487 ft | 511 kts | 52° |
| 2026-04-24 09:34 | 61.28179 | 46.82838 | 34484 ft | 512 kts | 52° |
| 2026-04-24 09:34 | 61.32576 | 46.94508 | 34477 ft | 512 kts | 52° |
| 2026-04-24 09:35 | 61.36961 | 47.06206 | 34473 ft | 512 kts | 52° |
| 2026-04-24 09:35 | 61.41335 | 47.17919 | 34471 ft | 512 kts | 52° |
| 2026-04-24 09:36 | 61.45708 | 47.29685 | 34469 ft | 512 kts | 52° |
| 2026-04-24 09:36 | 61.50074 | 47.41460 | 34465 ft | 512 kts | 52° |
| 2026-04-24 09:37 | 61.54422 | 47.53260 | 34461 ft | 512 kts | 53° |
| 2026-04-24 09:37 | 61.58741 | 47.65126 | 34455 ft | 512 kts | 53° |
| 2026-04-24 09:38 | 61.63053 | 47.77048 | 34454 ft | 512 kts | 53° |
| 2026-04-24 09:38 | 61.67358 | 47.89007 | 34449 ft | 513 kts | 53° |
| 2026-04-24 09:39 | 61.71664 | 48.01016 | 34439 ft | 513 kts | 53° |
| 2026-04-24 09:39 | 61.75956 | 48.13054 | 34433 ft | 514 kts | 53° |
| 2026-04-24 09:40 | 61.80245 | 48.25147 | 34425 ft | 514 kts | 53° |
| 2026-04-24 09:40 | 61.84524 | 48.37276 | 34429 ft | 515 kts | 54° |
| 2026-04-24 09:41 | 61.88798 | 48.49452 | 34421 ft | 515 kts | 54° |
| 2026-04-24 09:41 | 61.93061 | 48.61663 | 34420 ft | 515 kts | 54° |
| 2026-04-24 09:42 | 61.97321 | 48.73932 | 34420 ft | 516 kts | 54° |
| 2026-04-24 09:42 | 62.01573 | 48.86244 | 34420 ft | 515 kts | 54° |
| 2026-04-24 09:43 | 62.05805 | 48.98566 | 34414 ft | 515 kts | 54° |
| 2026-04-24 09:43 | 62.10031 | 49.10934 | 34417 ft | 516 kts | 54° |
| 2026-04-24 09:44 | 62.14236 | 49.23267 | 34403 ft | 517 kts | 54° |
| 2026-04-24 09:44 | 62.18465 | 49.35688 | 34409 ft | 516 kts | 54° |
| 2026-04-24 09:45 | 62.22682 | 49.48145 | 34413 ft | 516 kts | 54° |
| 2026-04-24 09:45 | 62.26881 | 49.60623 | 34413 ft | 515 kts | 54° |
| 2026-04-24 09:46 | 62.31070 | 49.73131 | 34412 ft | 515 kts | 54° |
| 2026-04-24 09:46 | 62.35242 | 49.85670 | 34412 ft | 516 kts | 55° |
| 2026-04-24 09:47 | 62.39407 | 49.98257 | 34407 ft | 516 kts | 55° |
| 2026-04-24 09:47 | 62.43564 | 50.10889 | 34411 ft | 516 kts | 55° |
| 2026-04-24 09:48 | 62.47709 | 50.23546 | 34406 ft | 517 kts | 55° |
| 2026-04-24 09:48 | 62.51849 | 50.36265 | 34400 ft | 517 kts | 55° |
| 2026-04-24 09:49 | 62.55976 | 50.48999 | 34405 ft | 516 kts | 55° |
| 2026-04-24 09:49 | 62.60130 | 50.61728 | 34404 ft | 517 kts | 55° |
| 2026-04-24 09:50 | 62.64282 | 50.74474 | 34413 ft | 517 kts | 55° |
| 2026-04-24 09:50 | 62.68417 | 50.87270 | 34408 ft | 517 kts | 55° |
| 2026-04-24 09:51 | 62.72540 | 51.00098 | 34413 ft | 517 kts | 55° |
| 2026-04-24 09:51 | 62.76650 | 51.12982 | 34411 ft | 517 kts | 56° |
| 2026-04-24 09:52 | 62.80729 | 51.25890 | 34413 ft | 516 kts | 56° |
| 2026-04-24 09:52 | 62.84798 | 51.38846 | 34412 ft | 516 kts | 56° |
| 2026-04-24 09:53 | 62.88856 | 51.51822 | 34418 ft | 516 kts | 56° |
| 2026-04-24 09:53 | 62.92903 | 51.64846 | 34421 ft | 517 kts | 56° |
| 2026-04-24 09:54 | 62.96941 | 51.77912 | 34405 ft | 517 kts | 56° |
| 2026-04-24 09:54 | 63.00965 | 51.91011 | 34424 ft | 517 kts | 56° |
| 2026-04-24 09:55 | 63.04982 | 52.04149 | 34421 ft | 517 kts | 56° |
| 2026-04-24 09:55 | 63.08983 | 52.17325 | 34430 ft | 517 kts | 57° |
| 2026-04-24 09:56 | 63.12972 | 52.30535 | 34434 ft | 517 kts | 57° |
| 2026-04-24 09:56 | 63.16949 | 52.43775 | 34438 ft | 517 kts | 57° |
| 2026-04-24 09:57 | 63.20901 | 52.57078 | 34430 ft | 517 kts | 57° |
| 2026-04-24 09:57 | 63.24829 | 52.70446 | 34450 ft | 517 kts | 57° |
| 2026-04-24 09:58 | 63.28746 | 52.83854 | 34458 ft | 517 kts | 57° |
| 2026-04-24 09:58 | 63.32657 | 52.97293 | 34445 ft | 517 kts | 58° |
| 2026-04-24 09:59 | 63.36551 | 53.10766 | 34448 ft | 518 kts | 58° |
| 2026-04-24 09:59 | 63.40433 | 53.24285 | 34447 ft | 518 kts | 58° |
| 2026-04-24 10:00 | 63.44303 | 53.37833 | 34460 ft | 518 kts | 58° |
| 2026-04-24 10:00 | 63.48164 | 53.51435 | 34457 ft | 518 kts | 58° |
| 2026-04-24 10:01 | 63.52011 | 53.65072 | 34446 ft | 518 kts | 58° |
| 2026-04-24 10:01 | 63.55852 | 53.78749 | 34462 ft | 518 kts | 58° |
| 2026-04-24 10:02 | 63.59851 | 53.92219 | 34447 ft | 519 kts | 55° |
| 2026-04-24 10:02 | 63.64036 | 54.05432 | 34455 ft | 519 kts | 55° |
| 2026-04-24 10:03 | 63.68188 | 54.18710 | 34466 ft | 519 kts | 55° |
| 2026-04-24 10:03 | 63.72294 | 54.32094 | 34474 ft | 519 kts | 56° |
| 2026-04-24 10:04 | 63.76341 | 54.45433 | 34448 ft | 518 kts | 56° |
| 2026-04-24 10:04 | 63.80402 | 54.58900 | 34475 ft | 518 kts | 56° |
| 2026-04-24 10:05 | 63.84451 | 54.72386 | 34472 ft | 518 kts | 56° |
| 2026-04-24 10:05 | 63.88491 | 54.85917 | 34463 ft | 518 kts | 56° |
| 2026-04-24 10:06 | 63.94519 | 55.06264 | 34480 ft | 517 kts | 56° |
| 2026-04-24 10:07 | 63.98525 | 55.19893 | 34480 ft | 518 kts | 57° |
| 2026-04-24 10:07 | 64.02511 | 55.33572 | 34481 ft | 518 kts | 57° |
| 2026-04-24 10:08 | 64.06485 | 55.47304 | 34484 ft | 519 kts | 57° |
| 2026-04-24 10:08 | 64.10451 | 55.61092 | 34490 ft | 519 kts | 57° |
| 2026-04-24 10:09 | 64.14407 | 55.74918 | 34491 ft | 519 kts | 57° |
| 2026-04-24 10:09 | 64.17683 | 55.86439 | 34501 ft | 519 kts | 57° |
| 2026-04-24 10:10 | 64.21618 | 56.00340 | 34503 ft | 519 kts | 57° |
| 2026-04-24 10:10 | 64.25541 | 56.14296 | 34495 ft | 519 kts | 58° |
| 2026-04-24 10:11 | 64.29446 | 56.28288 | 34497 ft | 519 kts | 58° |
| 2026-04-24 10:11 | 64.33336 | 56.42298 | 34506 ft | 519 kts | 58° |
| 2026-04-24 10:12 | 64.37220 | 56.56357 | 34501 ft | 519 kts | 58° |
| 2026-04-24 10:12 | 64.41095 | 56.70436 | 34508 ft | 519 kts | 58° |
| 2026-04-24 10:13 | 64.44959 | 56.84534 | 34508 ft | 519 kts | 58° |
| 2026-04-24 10:13 | 64.48809 | 56.98668 | 34509 ft | 519 kts | 58° |
| 2026-04-24 10:14 | 64.52642 | 57.12845 | 34516 ft | 518 kts | 58° |
| 2026-04-24 10:14 | 64.56459 | 57.27055 | 34520 ft | 518 kts | 58° |
| 2026-04-24 10:15 | 64.60262 | 57.41310 | 34519 ft | 518 kts | 58° |
| 2026-04-24 10:15 | 64.64052 | 57.55595 | 34520 ft | 518 kts | 58° |
| 2026-04-24 10:16 | 64.67822 | 57.69899 | 34524 ft | 517 kts | 59° |
| 2026-04-24 10:16 | 64.71570 | 57.84230 | 34519 ft | 517 kts | 59° |
| 2026-04-24 10:17 | 64.75277 | 57.98630 | 34510 ft | 516 kts | 59° |
| 2026-04-24 10:17 | 64.78966 | 58.13056 | 34512 ft | 515 kts | 59° |
| 2026-04-24 10:18 | 64.82644 | 58.27498 | 34531 ft | 515 kts | 59° |
| 2026-04-24 10:18 | 64.86311 | 58.41983 | 34513 ft | 515 kts | 60° |
| 2026-04-24 10:19 | 64.89952 | 58.56523 | 34520 ft | 515 kts | 60° |
| 2026-04-24 10:19 | 64.93568 | 58.71092 | 34531 ft | 515 kts | 60° |
| 2026-04-24 10:20 | 64.97172 | 58.85705 | 34529 ft | 515 kts | 60° |
| 2026-04-24 10:20 | 65.00763 | 59.00356 | 34518 ft | 515 kts | 60° |
| 2026-04-24 10:21 | 65.04343 | 59.15037 | 34538 ft | 515 kts | 60° |
| 2026-04-24 10:21 | 65.07910 | 59.29748 | 34533 ft | 515 kts | 60° |
| 2026-04-24 10:22 | 65.11457 | 59.44512 | 34537 ft | 514 kts | 61° |
| 2026-04-24 10:22 | 65.14984 | 59.59303 | 34543 ft | 514 kts | 61° |
| 2026-04-24 10:23 | 65.18500 | 59.74126 | 34540 ft | 514 kts | 61° |
| 2026-04-24 10:23 | 65.21976 | 59.88870 | 34543 ft | 514 kts | 61° |
| 2026-04-24 10:24 | 65.25478 | 60.03847 | 34547 ft | 513 kts | 61° |
| 2026-04-24 10:24 | 65.28916 | 60.18624 | 34546 ft | 512 kts | 62° |
| 2026-04-24 10:25 | 65.32355 | 60.33538 | 34543 ft | 512 kts | 62° |
| 2026-04-24 10:25 | 65.35783 | 60.48500 | 34536 ft | 512 kts | 62° |
| 2026-04-24 10:26 | 65.39192 | 60.63481 | 34537 ft | 511 kts | 62° |
| 2026-04-24 10:26 | 65.42580 | 60.78467 | 34547 ft | 511 kts | 62° |
| 2026-04-24 10:27 | 65.45954 | 60.93497 | 34539 ft | 511 kts | 62° |
| 2026-04-24 10:27 | 65.49319 | 61.08587 | 34549 ft | 512 kts | 62° |
| 2026-04-24 10:28 | 65.52672 | 61.23727 | 34548 ft | 512 kts | 63° |
| 2026-04-24 10:28 | 65.56004 | 61.38903 | 34551 ft | 512 kts | 63° |
| 2026-04-24 10:29 | 65.59320 | 61.54110 | 34553 ft | 511 kts | 63° |
| 2026-04-24 10:29 | 65.62623 | 61.69349 | 34558 ft | 511 kts | 63° |
| 2026-04-24 10:30 | 65.65902 | 61.84607 | 34556 ft | 511 kts | 63° |
| 2026-04-24 10:30 | 65.69170 | 61.99898 | 34558 ft | 511 kts | 63° |
| 2026-04-24 10:31 | 65.72430 | 62.15225 | 34554 ft | 510 kts | 63° |
| 2026-04-24 10:31 | 65.75707 | 62.30532 | 34563 ft | 511 kts | 63° |
| 2026-04-24 10:32 | 65.78977 | 62.45875 | 34575 ft | 510 kts | 63° |
| 2026-04-24 10:32 | 65.82207 | 62.61163 | 34573 ft | 510 kts | 63° |
| 2026-04-24 10:33 | 65.85440 | 62.76586 | 34575 ft | 510 kts | 63° |
| 2026-04-24 10:33 | 65.88659 | 62.92058 | 34572 ft | 511 kts | 64° |
| 2026-04-24 10:34 | 65.91863 | 63.07583 | 34578 ft | 511 kts | 64° |
| 2026-04-24 10:34 | 65.95054 | 63.23159 | 34575 ft | 511 kts | 64° |
| 2026-04-24 10:35 | 65.98230 | 63.38773 | 34574 ft | 511 kts | 64° |
| 2026-04-24 10:35 | 66.01381 | 63.54375 | 34576 ft | 509 kts | 64° |
| 2026-04-24 10:36 | 66.04510 | 63.69982 | 34578 ft | 508 kts | 64° |
| 2026-04-24 10:36 | 66.07617 | 63.85601 | 34578 ft | 507 kts | 64° |
| 2026-04-24 10:37 | 66.10702 | 64.01232 | 34587 ft | 507 kts | 65° |
| 2026-04-24 10:37 | 66.13765 | 64.16889 | 34587 ft | 506 kts | 65° |
| 2026-04-24 10:38 | 66.16812 | 64.32576 | 34584 ft | 506 kts | 65° |
| 2026-04-24 10:38 | 66.19848 | 64.48324 | 34580 ft | 506 kts | 65° |
| 2026-04-24 10:39 | 66.22861 | 64.64079 | 34582 ft | 506 kts | 65° |
| 2026-04-24 10:39 | 66.25866 | 64.79896 | 34581 ft | 507 kts | 65° |
| 2026-04-24 10:40 | 66.28855 | 64.95765 | 34585 ft | 508 kts | 65° |
| 2026-04-24 10:40 | 66.31813 | 65.11591 | 34586 ft | 508 kts | 65° |
| 2026-04-24 10:41 | 66.34773 | 65.27557 | 34584 ft | 508 kts | 66° |
| 2026-04-24 10:41 | 66.37724 | 65.43579 | 34587 ft | 509 kts | 66° |
| 2026-04-24 10:42 | 66.40657 | 65.59644 | 34586 ft | 509 kts | 66° |
| 2026-04-24 10:42 | 66.43593 | 65.75725 | 34590 ft | 509 kts | 65° |
| 2026-04-24 10:43 | 66.46524 | 65.91825 | 34589 ft | 509 kts | 66° |
| 2026-04-24 10:43 | 66.49439 | 66.07960 | 34586 ft | 509 kts | 66° |
| 2026-04-24 10:44 | 66.52332 | 66.24151 | 34587 ft | 508 kts | 66° |
| 2026-04-24 10:44 | 66.55204 | 66.40345 | 34588 ft | 508 kts | 66° |
| 2026-04-24 10:45 | 66.58062 | 66.56563 | 34614 ft | 508 kts | 66° |
| 2026-04-24 10:45 | 66.61113 | 66.72553 | 34613 ft | 507 kts | 63° |
| 2026-04-24 10:46 | 66.64337 | 66.88235 | 34603 ft | 507 kts | 62° |
| 2026-04-24 10:46 | 66.67564 | 67.04055 | 34604 ft | 507 kts | 63° |
| 2026-04-24 10:47 | 66.70743 | 67.19939 | 34596 ft | 507 kts | 63° |
| 2026-04-24 10:47 | 66.73898 | 67.35883 | 34591 ft | 507 kts | 63° |
| 2026-04-24 10:48 | 66.77048 | 67.51890 | 34596 ft | 508 kts | 63° |
| 2026-04-24 10:48 | 66.80186 | 67.67951 | 34594 ft | 508 kts | 63° |
| 2026-04-24 10:49 | 66.83318 | 67.84045 | 34600 ft | 509 kts | 63° |
| 2026-04-24 10:49 | 66.86444 | 68.00214 | 34595 ft | 509 kts | 63° |
| 2026-04-24 10:50 | 66.89548 | 68.16405 | 34602 ft | 509 kts | 63° |
| 2026-04-24 10:50 | 66.92614 | 68.32510 | 34603 ft | 509 kts | 64° |
| 2026-04-24 10:51 | 66.95682 | 68.48761 | 34598 ft | 508 kts | 64° |
| 2026-04-24 10:51 | 66.98728 | 68.65040 | 34605 ft | 508 kts | 64° |
| 2026-04-24 10:52 | 67.01758 | 68.81355 | 34613 ft | 507 kts | 64° |
| 2026-04-24 10:52 | 67.04773 | 68.97710 | 34607 ft | 508 kts | 64° |
| 2026-04-24 10:53 | 67.07771 | 69.14124 | 34617 ft | 509 kts | 64° |
| 2026-04-24 10:53 | 67.10760 | 69.30603 | 34617 ft | 510 kts | 64° |
| 2026-04-24 10:54 | 67.13735 | 69.47149 | 34615 ft | 510 kts | 65° |
| 2026-04-24 10:54 | 67.16691 | 69.63729 | 34616 ft | 510 kts | 65° |
| 2026-04-24 10:55 | 67.19632 | 69.80365 | 34620 ft | 510 kts | 65° |
| 2026-04-24 10:55 | 67.22068 | 69.94229 | 34609 ft | 510 kts | 65° |
| 2026-04-24 10:56 | 67.24978 | 70.10933 | 34616 ft | 510 kts | 65° |
| 2026-04-24 10:56 | 67.28341 | 70.30415 | 34619 ft | 510 kts | 65° |
| 2026-04-24 10:57 | 67.30749 | 70.44492 | 34614 ft | 510 kts | 65° |
| 2026-04-24 10:57 | 67.34070 | 70.64062 | 34626 ft | 510 kts | 65° |
| 2026-04-24 10:58 | 67.36448 | 70.78197 | 34623 ft | 510 kts | 66° |
| 2026-04-24 10:58 | 67.39267 | 70.95079 | 34621 ft | 509 kts | 66° |
| 2026-04-24 10:59 | 67.42053 | 71.11903 | 34624 ft | 509 kts | 66° |
| 2026-04-24 10:59 | 67.44833 | 71.28863 | 34612 ft | 509 kts | 66° |
| 2026-04-24 11:00 | 67.47599 | 71.45862 | 34621 ft | 509 kts | 66° |
| 2026-04-24 11:00 | 67.50351 | 71.62906 | 34630 ft | 510 kts | 66° |
| 2026-04-24 11:01 | 67.53086 | 71.79979 | 34628 ft | 510 kts | 66° |
| 2026-04-24 11:01 | 67.55805 | 71.97102 | 34628 ft | 510 kts | 66° |
| 2026-04-24 11:02 | 67.58507 | 72.14289 | 34634 ft | 510 kts | 67° |
| 2026-04-24 11:02 | 67.61192 | 72.31506 | 34629 ft | 510 kts | 67° |
| 2026-04-24 11:03 | 67.63854 | 72.48766 | 34635 ft | 510 kts | 67° |
| 2026-04-24 11:03 | 67.66503 | 72.66053 | 34636 ft | 510 kts | 67° |
| 2026-04-24 11:04 | 67.69137 | 72.83383 | 34632 ft | 510 kts | 67° |
| 2026-04-24 11:04 | 67.71684 | 73.00817 | 34630 ft | 511 kts | 69° |
| 2026-04-24 11:05 | 67.74051 | 73.18458 | 34627 ft | 511 kts | 70° |
| 2026-04-24 11:05 | 67.76396 | 73.36143 | 34628 ft | 510 kts | 70° |
| 2026-04-24 11:06 | 67.78748 | 73.53834 | 34627 ft | 510 kts | 70° |
| 2026-04-24 11:06 | 67.81088 | 73.71550 | 34627 ft | 510 kts | 70° |
| 2026-04-24 11:07 | 67.84560 | 73.98179 | 34628 ft | 510 kts | 70° |
| 2026-04-24 11:07 | 67.86854 | 74.15987 | 34626 ft | 510 kts | 70° |
| 2026-04-24 11:08 | 67.89135 | 74.33791 | 34623 ft | 509 kts | 70° |
| 2026-04-24 11:08 | 67.91400 | 74.51459 | 34625 ft | 509 kts | 70° |
| 2026-04-24 11:09 | 67.93659 | 74.69274 | 34626 ft | 509 kts | 70° |
| 2026-04-24 11:09 | 67.95899 | 74.87155 | 34620 ft | 509 kts | 71° |
| 2026-04-24 11:10 | 67.98123 | 75.05082 | 34625 ft | 510 kts | 71° |
| 2026-04-24 11:10 | 68.00512 | 75.22865 | 34620 ft | 510 kts | 68° |
| 2026-04-24 11:11 | 68.03112 | 75.40465 | 34624 ft | 509 kts | 68° |
| 2026-04-24 11:11 | 68.05679 | 75.58088 | 34615 ft | 509 kts | 68° |
| 2026-04-24 11:12 | 68.08193 | 75.75795 | 34623 ft | 509 kts | 69° |
| 2026-04-24 11:12 | 68.10688 | 75.93571 | 34618 ft | 509 kts | 69° |
| 2026-04-24 11:13 | 68.13160 | 76.11331 | 34617 ft | 509 kts | 69° |
| 2026-04-24 11:13 | 68.15611 | 76.29152 | 34618 ft | 509 kts | 69° |
| 2026-04-24 11:14 | 68.18042 | 76.46993 | 34611 ft | 509 kts | 69° |
| 2026-04-24 11:14 | 68.20457 | 76.64900 | 34613 ft | 509 kts | 70° |
| 2026-04-24 11:15 | 68.22852 | 76.82834 | 34608 ft | 509 kts | 70° |
| 2026-04-24 11:15 | 68.25231 | 77.00822 | 34610 ft | 509 kts | 70° |
| 2026-04-24 11:16 | 68.27588 | 77.18837 | 34603 ft | 509 kts | 70° |
| 2026-04-24 11:16 | 68.29926 | 77.36892 | 34613 ft | 509 kts | 70° |
| 2026-04-24 11:17 | 68.32242 | 77.54972 | 34604 ft | 509 kts | 71° |
| 2026-04-24 11:17 | 68.34539 | 77.73096 | 34605 ft | 509 kts | 71° |
| 2026-04-24 11:18 | 68.36818 | 77.91245 | 34602 ft | 509 kts | 71° |
| 2026-04-24 11:18 | 68.39076 | 78.09437 | 34610 ft | 509 kts | 71° |
| 2026-04-24 11:19 | 68.41314 | 78.27649 | 34602 ft | 509 kts | 71° |
| 2026-04-24 11:19 | 68.43531 | 78.45905 | 34600 ft | 509 kts | 72° |
| 2026-04-24 11:20 | 68.45724 | 78.64164 | 34608 ft | 508 kts | 72° |
| 2026-04-24 11:20 | 68.47905 | 78.82480 | 34603 ft | 508 kts | 72° |
| 2026-04-24 11:21 | 68.50101 | 79.00774 | 34612 ft | 509 kts | 71° |
| 2026-04-24 11:21 | 68.52385 | 79.18899 | 34606 ft | 508 kts | 71° |
| 2026-04-24 11:22 | 68.54670 | 79.37135 | 34604 ft | 508 kts | 71° |
| 2026-04-24 11:22 | 68.56917 | 79.55434 | 34599 ft | 507 kts | 71° |
| 2026-04-24 11:23 | 68.59134 | 79.73738 | 34602 ft | 507 kts | 72° |
| 2026-04-24 11:23 | 68.61331 | 79.92072 | 34603 ft | 507 kts | 72° |
| 2026-04-24 11:24 | 68.63509 | 80.10433 | 34605 ft | 507 kts | 72° |
| 2026-04-24 11:24 | 68.65654 | 80.28858 | 34602 ft | 507 kts | 72° |
| 2026-04-24 11:25 | 68.67779 | 80.47307 | 34606 ft | 507 kts | 72° |
| 2026-04-24 11:25 | 68.69882 | 80.65788 | 34606 ft | 507 kts | 73° |
| 2026-04-24 11:26 | 68.71969 | 80.84310 | 34607 ft | 507 kts | 73° |
| 2026-04-24 11:26 | 68.74036 | 81.02869 | 34606 ft | 507 kts | 73° |
| 2026-04-24 11:27 | 68.76083 | 81.21474 | 34689 ft | 509 kts | 73° |
| 2026-04-24 11:27 | 68.77090 | 81.30699 | 34957 ft | 508 kts | 73° |
| 2026-04-24 11:27 | 68.78101 | 81.40034 | 35291 ft | 507 kts | 73° |
| 2026-04-24 11:28 | 68.79116 | 81.49456 | 35621 ft | 505 kts | 73° |
| 2026-04-24 11:28 | 68.80098 | 81.58622 | 35932 ft | 504 kts | 73° |
| 2026-04-24 11:28 | 68.81087 | 81.67901 | 36193 ft | 504 kts | 73° |
| 2026-04-24 11:28 | 68.82073 | 81.77209 | 36420 ft | 505 kts | 74° |
| 2026-04-24 11:29 | 68.83055 | 81.86544 | 36556 ft | 506 kts | 74° |
| 2026-04-24 11:29 | 68.84035 | 81.95903 | 36612 ft | 507 kts | 74° |
| 2026-04-24 11:29 | 68.85979 | 82.14664 | 36613 ft | 505 kts | 74° |
| 2026-04-24 11:30 | 68.87892 | 82.33339 | 36613 ft | 502 kts | 75° |
| 2026-04-24 11:30 | 68.89771 | 82.51959 | 36629 ft | 501 kts | 75° |
| 2026-04-24 11:31 | 68.91631 | 82.70607 | 36624 ft | 501 kts | 75° |
| 2026-04-24 11:31 | 68.93474 | 82.89279 | 36630 ft | 501 kts | 75° |
| 2026-04-24 11:32 | 68.95295 | 83.08010 | 36620 ft | 502 kts | 75° |
| 2026-04-24 11:32 | 68.97099 | 83.26813 | 36635 ft | 503 kts | 75° |
| 2026-04-24 11:33 | 68.98889 | 83.45702 | 36631 ft | 505 kts | 76° |
| 2026-04-24 11:33 | 69.00664 | 83.64657 | 36641 ft | 506 kts | 76° |
| 2026-04-24 11:34 | 69.02423 | 83.83694 | 36640 ft | 507 kts | 76° |
| 2026-04-24 11:34 | 69.04154 | 84.02754 | 36641 ft | 507 kts | 76° |
| 2026-04-24 11:35 | 69.05867 | 84.21853 | 36645 ft | 507 kts | 76° |
| 2026-04-24 11:35 | 69.07559 | 84.40967 | 36654 ft | 506 kts | 77° |
| 2026-04-24 11:36 | 69.09231 | 84.60113 | 36648 ft | 507 kts | 77° |
| 2026-04-24 11:36 | 69.10880 | 84.79286 | 36664 ft | 506 kts | 77° |
| 2026-04-24 11:37 | 69.12506 | 84.98485 | 36664 ft | 506 kts | 77° |
| 2026-04-24 11:37 | 69.14111 | 85.17692 | 36661 ft | 506 kts | 77° |
| 2026-04-24 11:38 | 69.15692 | 85.36913 | 36653 ft | 505 kts | 78° |
| 2026-04-24 11:38 | 69.17250 | 85.56137 | 36659 ft | 505 kts | 78° |
| 2026-04-24 11:39 | 69.18786 | 85.75389 | 36657 ft | 505 kts | 78° |
| 2026-04-24 11:39 | 69.20300 | 85.94646 | 36657 ft | 504 kts | 78° |
| 2026-04-24 11:40 | 69.21796 | 86.13953 | 36656 ft | 504 kts | 78° |
| 2026-04-24 11:40 | 69.23264 | 86.33253 | 36659 ft | 504 kts | 79° |
| 2026-04-24 11:41 | 69.24469 | 86.49326 | 36660 ft | 504 kts | 79° |
| 2026-04-24 11:41 | 69.25900 | 86.68666 | 36665 ft | 504 kts | 79° |
| 2026-04-24 11:42 | 69.27536 | 86.91216 | 36661 ft | 504 kts | 79° |
| 2026-04-24 11:42 | 69.28700 | 87.07502 | 36651 ft | 506 kts | 79° |
| 2026-04-24 11:43 | 69.30074 | 87.27009 | 36657 ft | 507 kts | 80° |
| 2026-04-24 11:43 | 69.31026 | 87.46753 | 36669 ft | 507 kts | 85° |
| 2026-04-24 11:44 | 69.31750 | 87.66613 | 36672 ft | 508 kts | 85° |
| 2026-04-24 11:44 | 69.32476 | 87.86533 | 36674 ft | 509 kts | 85° |
| 2026-04-24 11:45 | 69.33202 | 88.06335 | 36680 ft | 509 kts | 85° |
| 2026-04-24 11:45 | 69.33919 | 88.26373 | 36695 ft | 508 kts | 85° |
| 2026-04-24 11:46 | 69.34601 | 88.46112 | 36712 ft | 507 kts | 85° |
| 2026-04-24 11:46 | 69.35290 | 88.66081 | 36713 ft | 506 kts | 85° |
| 2026-04-24 11:47 | 69.35950 | 88.85775 | 36735 ft | 505 kts | 85° |
| 2026-04-24 11:47 | 69.36591 | 89.05584 | 36740 ft | 504 kts | 86° |
| 2026-04-24 11:48 | 69.37203 | 89.25401 | 36750 ft | 504 kts | 86° |
| 2026-04-24 11:48 | 69.37796 | 89.45232 | 36747 ft | 505 kts | 86° |
| 2026-04-24 11:49 | 69.38368 | 89.65080 | 36749 ft | 505 kts | 86° |
| 2026-04-24 11:49 | 69.38917 | 89.84963 | 36750 ft | 506 kts | 86° |
| 2026-04-24 11:50 | 69.39443 | 90.04877 | 36751 ft | 506 kts | 87° |
| 2026-04-24 11:50 | 69.39946 | 90.24836 | 36772 ft | 507 kts | 87° |
| 2026-04-24 11:51 | 69.40429 | 90.44841 | 36776 ft | 508 kts | 87° |
| 2026-04-24 11:51 | 69.40893 | 90.64884 | 36788 ft | 509 kts | 87° |
| 2026-04-24 11:52 | 69.41365 | 90.84940 | 36784 ft | 509 kts | 87° |
| 2026-04-24 11:52 | 69.41845 | 91.04996 | 36768 ft | 509 kts | 87° |
| 2026-04-24 11:53 | 69.42298 | 91.25034 | 36785 ft | 508 kts | 87° |
| 2026-04-24 11:53 | 69.42724 | 91.45036 | 36795 ft | 506 kts | 88° |
| 2026-04-24 11:54 | 69.43122 | 91.65025 | 36816 ft | 506 kts | 88° |
| 2026-04-24 11:54 | 69.43495 | 91.85007 | 36806 ft | 506 kts | 88° |
| 2026-04-24 11:55 | 69.43849 | 92.04988 | 36826 ft | 505 kts | 88° |
| 2026-04-24 11:55 | 69.44181 | 92.25007 | 36823 ft | 507 kts | 88° |
| 2026-04-24 11:56 | 69.44490 | 92.45095 | 36833 ft | 509 kts | 89° |
| 2026-04-24 11:56 | 69.44776 | 92.65268 | 36828 ft | 511 kts | 89° |
| 2026-04-24 11:57 | 69.45041 | 92.85488 | 36850 ft | 512 kts | 89° |
| 2026-04-24 11:57 | 69.45283 | 93.05747 | 36849 ft | 512 kts | 89° |
| 2026-04-24 11:58 | 69.45500 | 93.25976 | 36860 ft | 511 kts | 89° |
| 2026-04-24 11:58 | 69.45692 | 93.46165 | 36874 ft | 509 kts | 90° |
| 2026-04-24 11:59 | 69.45861 | 93.66200 | 36866 ft | 509 kts | 90° |
| 2026-04-24 11:59 | 69.46009 | 93.86447 | 36879 ft | 508 kts | 90° |
| 2026-04-24 12:00 | 69.46131 | 94.06451 | 36872 ft | 509 kts | 90° |
| 2026-04-24 12:00 | 69.46230 | 94.26558 | 36874 ft | 508 kts | 90° |
| 2026-04-24 12:01 | 69.46308 | 94.46665 | 36876 ft | 508 kts | 91° |
| 2026-04-24 12:01 | 69.46361 | 94.66767 | 36894 ft | 507 kts | 91° |
| 2026-04-24 12:02 | 69.46394 | 94.86847 | 36896 ft | 507 kts | 91° |
| 2026-04-24 12:02 | 69.46396 | 95.06910 | 36915 ft | 506 kts | 91° |
| 2026-04-24 12:03 | 69.46329 | 95.26904 | 36906 ft | 504 kts | 92° |
| 2026-04-24 12:03 | 69.46229 | 95.46856 | 36917 ft | 503 kts | 92° |
| 2026-04-24 12:04 | 69.46114 | 95.66767 | 36915 ft | 504 kts | 92° |
| 2026-04-24 12:04 | 69.45979 | 95.86692 | 36925 ft | 504 kts | 92° |
| 2026-04-24 12:05 | 69.45824 | 96.06651 | 36930 ft | 505 kts | 92° |
| 2026-04-24 12:05 | 69.45641 | 96.26623 | 36932 ft | 504 kts | 92° |
| 2026-04-24 12:06 | 69.45439 | 96.46554 | 36940 ft | 504 kts | 93° |
| 2026-04-24 12:06 | 69.45216 | 96.66491 | 36952 ft | 503 kts | 93° |
| 2026-04-24 12:07 | 69.44968 | 96.86394 | 36954 ft | 503 kts | 93° |
| 2026-04-24 12:07 | 69.44698 | 97.06271 | 36959 ft | 503 kts | 93° |
| 2026-04-24 12:08 | 69.44406 | 97.26151 | 36957 ft | 503 kts | 94° |
| 2026-04-24 12:08 | 69.44089 | 97.46037 | 36980 ft | 504 kts | 94° |
| 2026-04-24 12:09 | 69.43751 | 97.65956 | 36969 ft | 504 kts | 94° |
| 2026-04-24 12:09 | 69.43389 | 97.85881 | 36974 ft | 505 kts | 94° |
| 2026-04-24 12:10 | 69.43005 | 98.05818 | 36984 ft | 505 kts | 95° |
| 2026-04-24 12:11 | 69.42384 | 98.35704 | 36991 ft | 504 kts | 94° |
| 2026-04-24 12:11 | 69.41943 | 98.55549 | 36986 ft | 502 kts | 95° |
| 2026-04-24 12:12 | 69.41485 | 98.75191 | 37004 ft | 501 kts | 95° |
| 2026-04-24 12:12 | 69.41003 | 98.94896 | 36997 ft | 499 kts | 95° |
| 2026-04-24 12:13 | 69.40500 | 99.14555 | 37006 ft | 498 kts | 95° |
| 2026-04-24 12:13 | 69.39981 | 99.34166 | 37008 ft | 498 kts | 95° |
| 2026-04-24 12:14 | 69.39432 | 99.53766 | 37009 ft | 498 kts | 95° |
| 2026-04-24 12:14 | 69.38854 | 99.73380 | 37017 ft | 499 kts | 96° |
| 2026-04-24 12:15 | 69.38253 | 99.93018 | 37008 ft | 499 kts | 96° |
| 2026-04-24 12:15 | 69.37634 | 100.12660 | 37008 ft | 500 kts | 96° |
| 2026-04-24 12:16 | 69.36991 | 100.32309 | 37012 ft | 500 kts | 96° |
| 2026-04-24 12:16 | 69.36328 | 100.51926 | 37018 ft | 500 kts | 96° |
| 2026-04-24 12:17 | 69.35641 | 100.71543 | 37023 ft | 500 kts | 96° |
| 2026-04-24 12:17 | 69.34932 | 100.91136 | 37023 ft | 500 kts | 96° |
| 2026-04-24 12:18 | 69.34204 | 101.10699 | 37025 ft | 499 kts | 97° |
| 2026-04-24 12:18 | 69.33454 | 101.30227 | 37030 ft | 499 kts | 97° |
| 2026-04-24 12:19 | 69.32684 | 101.49737 | 37034 ft | 498 kts | 97° |
| 2026-04-24 12:19 | 69.31902 | 101.69198 | 37035 ft | 498 kts | 97° |
| 2026-04-24 12:20 | 69.31112 | 101.88623 | 37044 ft | 497 kts | 97° |
| 2026-04-24 12:20 | 69.30302 | 102.08049 | 37044 ft | 497 kts | 97° |
| 2026-04-24 12:21 | 69.29470 | 102.27434 | 37041 ft | 497 kts | 97° |
| 2026-04-24 12:21 | 69.28614 | 102.46817 | 37049 ft | 497 kts | 98° |
| 2026-04-24 12:22 | 69.27739 | 102.66151 | 37044 ft | 496 kts | 98° |
| 2026-04-24 12:22 | 69.26848 | 102.85341 | 37049 ft | 496 kts | 98° |
| 2026-04-24 12:23 | 69.25933 | 103.04643 | 37053 ft | 496 kts | 98° |
| 2026-04-24 12:23 | 69.24987 | 103.23908 | 37042 ft | 496 kts | 98° |
| 2026-04-24 12:24 | 69.23990 | 103.43155 | 37056 ft | 496 kts | 99° |
| 2026-04-24 12:24 | 69.22974 | 103.62389 | 37058 ft | 497 kts | 99° |
| 2026-04-24 12:25 | 69.21937 | 103.81664 | 37058 ft | 497 kts | 99° |
| 2026-04-24 12:25 | 69.20887 | 104.00912 | 37066 ft | 497 kts | 99° |
| 2026-04-24 12:26 | 69.19812 | 104.20132 | 37070 ft | 498 kts | 99° |
| 2026-04-24 12:26 | 69.18713 | 104.39363 | 37076 ft | 498 kts | 100° |
| 2026-04-24 12:27 | 69.17784 | 104.55323 | 37073 ft | 498 kts | 100° |
| 2026-04-24 12:27 | 69.16647 | 104.74496 | 37088 ft | 497 kts | 100° |
| 2026-04-24 12:28 | 69.15493 | 104.93625 | 37089 ft | 497 kts | 100° |
| 2026-04-24 12:28 | 69.14319 | 105.12710 | 37100 ft | 496 kts | 100° |
| 2026-04-24 12:29 | 69.13120 | 105.31774 | 37098 ft | 496 kts | 101° |
| 2026-04-24 12:29 | 69.11901 | 105.50790 | 37112 ft | 495 kts | 101° |
| 2026-04-24 12:30 | 69.10665 | 105.69767 | 37109 ft | 495 kts | 101° |
| 2026-04-24 12:30 | 69.09409 | 105.88739 | 37122 ft | 495 kts | 101° |
| 2026-04-24 12:31 | 69.08132 | 106.07676 | 37118 ft | 495 kts | 101° |
| 2026-04-24 12:31 | 69.06834 | 106.26588 | 37129 ft | 494 kts | 102° |
| 2026-04-24 12:32 | 69.05520 | 106.45441 | 37133 ft | 494 kts | 102° |
| 2026-04-24 12:32 | 69.04186 | 106.64243 | 37135 ft | 493 kts | 102° |
| 2026-04-24 12:33 | 69.02837 | 106.83017 | 37138 ft | 493 kts | 102° |
| 2026-04-24 12:33 | 69.01473 | 107.01746 | 37147 ft | 493 kts | 102° |
| 2026-04-24 12:34 | 69.00089 | 107.20466 | 37150 ft | 493 kts | 103° |
| 2026-04-24 12:34 | 68.98689 | 107.39125 | 37151 ft | 491 kts | 103° |
| 2026-04-24 12:35 | 68.97268 | 107.57723 | 37148 ft | 489 kts | 103° |
| 2026-04-24 12:35 | 68.95834 | 107.76223 | 37159 ft | 489 kts | 103° |
| 2026-04-24 12:36 | 68.94384 | 107.94663 | 37158 ft | 488 kts | 103° |
| 2026-04-24 12:36 | 68.92910 | 108.13057 | 37159 ft | 488 kts | 104° |
| 2026-04-24 12:37 | 68.91422 | 108.31433 | 37163 ft | 487 kts | 104° |
| 2026-04-24 12:37 | 68.89918 | 108.49741 | 37162 ft | 486 kts | 104° |
| 2026-04-24 12:38 | 68.88394 | 108.67999 | 37172 ft | 486 kts | 104° |
| 2026-04-24 12:38 | 68.86849 | 108.86250 | 37168 ft | 486 kts | 104° |
| 2026-04-24 12:39 | 68.83702 | 109.22678 | 37176 ft | 487 kts | 105° |
| 2026-04-24 12:40 | 68.82098 | 109.40864 | 37176 ft | 486 kts | 105° |
| 2026-04-24 12:40 | 68.80472 | 109.59018 | 37183 ft | 487 kts | 105° |
| 2026-04-24 12:41 | 68.78829 | 109.77160 | 37180 ft | 487 kts | 105° |
| 2026-04-24 12:41 | 68.77168 | 109.95289 | 37183 ft | 487 kts | 105° |
| 2026-04-24 12:42 | 68.75481 | 110.13398 | 37182 ft | 487 kts | 106° |
| 2026-04-24 12:42 | 68.73781 | 110.31444 | 37184 ft | 486 kts | 106° |
| 2026-04-24 12:43 | 68.72075 | 110.49321 | 37190 ft | 485 kts | 106° |
| 2026-04-24 12:43 | 68.70332 | 110.67379 | 37195 ft | 485 kts | 106° |
| 2026-04-24 12:44 | 68.68592 | 110.85152 | 37188 ft | 485 kts | 107° |
| 2026-04-24 12:44 | 68.66812 | 111.03130 | 37185 ft | 484 kts | 107° |
| 2026-04-24 12:45 | 68.65025 | 111.20948 | 37194 ft | 484 kts | 107° |
| 2026-04-24 12:45 | 68.63232 | 111.38609 | 37197 ft | 484 kts | 107° |
| 2026-04-24 12:46 | 68.61409 | 111.56358 | 37197 ft | 483 kts | 107° |
| 2026-04-24 12:46 | 68.59570 | 111.74057 | 37190 ft | 484 kts | 107° |
| 2026-04-24 12:47 | 68.57711 | 111.91732 | 37195 ft | 483 kts | 108° |
| 2026-04-24 12:47 | 68.55837 | 112.09370 | 37190 ft | 483 kts | 108° |
| 2026-04-24 12:48 | 68.53941 | 112.26996 | 37194 ft | 483 kts | 108° |
| 2026-04-24 12:48 | 68.52032 | 112.44581 | 37195 ft | 483 kts | 108° |
| 2026-04-24 12:49 | 68.50025 | 112.62069 | 37192 ft | 483 kts | 110° |
| 2026-04-24 12:49 | 68.47921 | 112.79443 | 37190 ft | 483 kts | 110° |
| 2026-04-24 12:50 | 68.45813 | 112.96795 | 37192 ft | 482 kts | 110° |
| 2026-04-24 12:50 | 68.43704 | 113.14110 | 37193 ft | 483 kts | 110° |
| 2026-04-24 12:51 | 68.41577 | 113.31412 | 37195 ft | 483 kts | 110° |
| 2026-04-24 12:51 | 68.39435 | 113.48675 | 37193 ft | 483 kts | 110° |
| 2026-04-24 12:52 | 68.37272 | 113.65905 | 37193 ft | 482 kts | 111° |
| 2026-04-24 12:52 | 68.35128 | 113.83096 | 37181 ft | 482 kts | 111° |
| 2026-04-24 12:53 | 68.32982 | 114.00264 | 37190 ft | 481 kts | 111° |
| 2026-04-24 12:53 | 68.30815 | 114.17399 | 37195 ft | 481 kts | 111° |
| 2026-04-24 12:54 | 68.28628 | 114.34490 | 37197 ft | 482 kts | 111° |
| 2026-04-24 12:54 | 68.26425 | 114.51560 | 37195 ft | 482 kts | 111° |
| 2026-04-24 12:55 | 68.24198 | 114.68608 | 37184 ft | 482 kts | 111° |
| 2026-04-24 12:55 | 68.21937 | 114.85582 | 37195 ft | 481 kts | 112° |
| 2026-04-24 12:56 | 68.19660 | 115.02510 | 37200 ft | 481 kts | 112° |
| 2026-04-24 12:56 | 68.17367 | 115.19419 | 37205 ft | 482 kts | 112° |
| 2026-04-24 12:57 | 68.15057 | 115.36305 | 37197 ft | 482 kts | 112° |
| 2026-04-24 12:57 | 68.12748 | 115.53028 | 37198 ft | 481 kts | 112° |
| 2026-04-24 12:58 | 68.10413 | 115.69798 | 37197 ft | 480 kts | 113° |
| 2026-04-24 12:58 | 68.08059 | 115.86540 | 37203 ft | 480 kts | 113° |
| 2026-04-24 12:59 | 68.05688 | 116.03239 | 37189 ft | 480 kts | 113° |
| 2026-04-24 12:59 | 68.03297 | 116.19931 | 37201 ft | 480 kts | 113° |
| 2026-04-24 13:00 | 68.00892 | 116.36573 | 37196 ft | 481 kts | 113° |
| 2026-04-24 13:00 | 67.98469 | 116.53193 | 37193 ft | 480 kts | 114° |
| 2026-04-24 13:01 | 67.96033 | 116.69756 | 37199 ft | 480 kts | 114° |
| 2026-04-24 13:01 | 67.93576 | 116.86298 | 37196 ft | 481 kts | 114° |
| 2026-04-24 13:02 | 67.91106 | 117.02802 | 37196 ft | 480 kts | 114° |
| 2026-04-24 13:02 | 67.88620 | 117.19258 | 37197 ft | 480 kts | 114° |
| 2026-04-24 13:03 | 67.86083 | 117.35627 | 37176 ft | 480 kts | 115° |
| 2026-04-24 13:03 | 67.83520 | 117.51954 | 37186 ft | 479 kts | 115° |
| 2026-04-24 13:04 | 67.80946 | 117.68223 | 37186 ft | 479 kts | 115° |
| 2026-04-24 13:04 | 67.78364 | 117.84468 | 37184 ft | 479 kts | 115° |
| 2026-04-24 13:05 | 67.75765 | 118.00680 | 37183 ft | 479 kts | 115° |
| 2026-04-24 13:05 | 67.73147 | 118.16865 | 37186 ft | 480 kts | 115° |
| 2026-04-24 13:06 | 67.70531 | 118.32903 | 37185 ft | 479 kts | 116° |
| 2026-04-24 13:06 | 67.67883 | 118.49015 | 37187 ft | 479 kts | 116° |
| 2026-04-24 13:07 | 67.65223 | 118.65079 | 37186 ft | 479 kts | 116° |
| 2026-04-24 13:07 | 67.62551 | 118.81108 | 37185 ft | 479 kts | 116° |
| 2026-04-24 13:08 | 67.59928 | 118.97171 | 37186 ft | 479 kts | 115° |
| 2026-04-24 13:08 | 67.57312 | 119.13211 | 37184 ft | 478 kts | 116° |
| 2026-04-24 13:09 | 67.53351 | 119.37168 | 37193 ft | 478 kts | 116° |
| 2026-04-24 13:09 | 67.50689 | 119.53082 | 37184 ft | 478 kts | 116° |
| 2026-04-24 13:10 | 67.48013 | 119.68939 | 37191 ft | 477 kts | 116° |
| 2026-04-24 13:10 | 67.45776 | 119.82077 | 37173 ft | 477 kts | 116° |
| 2026-04-24 13:11 | 67.43078 | 119.97853 | 37186 ft | 476 kts | 117° |
| 2026-04-24 13:11 | 67.40363 | 120.13594 | 37175 ft | 476 kts | 117° |
| 2026-04-24 13:12 | 67.37640 | 120.29251 | 37181 ft | 475 kts | 117° |
| 2026-04-24 13:12 | 67.34902 | 120.44868 | 37181 ft | 475 kts | 117° |
| 2026-04-24 13:13 | 67.32149 | 120.60441 | 37181 ft | 475 kts | 117° |
| 2026-04-24 13:13 | 67.29385 | 120.75960 | 37173 ft | 474 kts | 117° |
| 2026-04-24 13:14 | 67.26607 | 120.91446 | 37185 ft | 474 kts | 118° |
| 2026-04-24 13:14 | 67.23819 | 121.06878 | 37184 ft | 474 kts | 118° |
| 2026-04-24 13:15 | 67.21014 | 121.22280 | 37183 ft | 474 kts | 118° |
| 2026-04-24 13:15 | 67.18193 | 121.37634 | 37185 ft | 474 kts | 118° |
| 2026-04-24 13:16 | 67.15362 | 121.52949 | 37171 ft | 474 kts | 118° |
| 2026-04-24 13:16 | 67.12512 | 121.68260 | 37186 ft | 474 kts | 118° |
| 2026-04-24 13:17 | 67.09643 | 121.83529 | 37184 ft | 474 kts | 118° |
| 2026-04-24 13:17 | 67.06761 | 121.98761 | 37180 ft | 474 kts | 118° |
| 2026-04-24 13:18 | 67.03869 | 122.13955 | 37186 ft | 474 kts | 119° |
| 2026-04-24 13:18 | 67.00966 | 122.29097 | 37185 ft | 474 kts | 119° |
| 2026-04-24 13:19 | 66.98016 | 122.44003 | 37182 ft | 472 kts | 120° |
| 2026-04-24 13:19 | 66.94921 | 122.58806 | 37183 ft | 472 kts | 121° |
| 2026-04-24 13:20 | 66.91816 | 122.73578 | 37182 ft | 472 kts | 121° |
| 2026-04-24 13:20 | 66.88715 | 122.88337 | 37182 ft | 472 kts | 121° |
| 2026-04-24 13:21 | 66.85608 | 123.03055 | 37179 ft | 472 kts | 121° |
| 2026-04-24 13:21 | 66.82488 | 123.17744 | 37173 ft | 472 kts | 121° |
| 2026-04-24 13:22 | 66.79477 | 123.32573 | 37175 ft | 474 kts | 115° |
| 2026-04-24 13:22 | 66.77418 | 123.48508 | 37179 ft | 479 kts | 105° |
| 2026-04-24 13:23 | 66.76140 | 123.65065 | 37180 ft | 479 kts | 103° |
| 2026-04-24 13:23 | 66.74895 | 123.81638 | 37173 ft | 479 kts | 104° |
| 2026-04-24 13:24 | 66.73606 | 123.98199 | 37157 ft | 479 kts | 104° |
| 2026-04-24 13:24 | 66.72282 | 124.14711 | 37170 ft | 479 kts | 104° |
| 2026-04-24 13:25 | 66.70939 | 124.31210 | 37175 ft | 479 kts | 104° |
| 2026-04-24 13:25 | 66.69577 | 124.47660 | 37173 ft | 479 kts | 104° |
| 2026-04-24 13:26 | 66.68198 | 124.64102 | 37173 ft | 478 kts | 104° |
| 2026-04-24 13:26 | 66.66805 | 124.80511 | 37171 ft | 478 kts | 105° |
| 2026-04-24 13:27 | 66.65395 | 124.96912 | 37163 ft | 478 kts | 105° |
| 2026-04-24 13:27 | 66.63968 | 125.13278 | 37156 ft | 478 kts | 104° |
| 2026-04-24 13:28 | 66.62523 | 125.29642 | 37168 ft | 479 kts | 105° |
| 2026-04-24 13:28 | 66.61059 | 125.46009 | 37176 ft | 479 kts | 105° |
| 2026-04-24 13:29 | 66.59576 | 125.62385 | 37180 ft | 480 kts | 105° |
| 2026-04-24 13:29 | 66.58075 | 125.78750 | 37184 ft | 481 kts | 105° |
| 2026-04-24 13:30 | 66.56553 | 125.95115 | 37183 ft | 480 kts | 105° |
| 2026-04-24 13:30 | 66.55015 | 126.11443 | 37192 ft | 481 kts | 105° |
| 2026-04-24 13:31 | 66.53463 | 126.27782 | 37210 ft | 481 kts | 105° |
| 2026-04-24 13:31 | 66.52488 | 126.37914 | 37190 ft | 482 kts | 105° |
| 2026-04-24 13:32 | 66.50903 | 126.54230 | 37219 ft | 481 kts | 105° |
| 2026-04-24 13:32 | 66.49305 | 126.70498 | 37216 ft | 481 kts | 106° |
| 2026-04-24 13:33 | 66.47693 | 126.86716 | 37229 ft | 480 kts | 106° |
| 2026-04-24 13:33 | 66.46065 | 127.02902 | 37225 ft | 479 kts | 106° |
| 2026-04-24 13:34 | 66.44422 | 127.19054 | 37228 ft | 479 kts | 106° |
| 2026-04-24 13:34 | 66.42761 | 127.35180 | 37241 ft | 479 kts | 106° |
| 2026-04-24 13:35 | 66.41086 | 127.51290 | 37242 ft | 479 kts | 106° |
| 2026-04-24 13:35 | 66.39393 | 127.67364 | 37245 ft | 479 kts | 106° |
| 2026-04-24 13:36 | 66.37681 | 127.83451 | 37266 ft | 480 kts | 106° |
| 2026-04-24 13:36 | 66.35950 | 127.99529 | 37277 ft | 481 kts | 107° |
| 2026-04-24 13:37 | 66.34199 | 128.15628 | 37263 ft | 482 kts | 107° |
| 2026-04-24 13:37 | 66.32431 | 128.31719 | 37271 ft | 482 kts | 107° |
| 2026-04-24 13:38 | 66.30643 | 128.47788 | 37287 ft | 482 kts | 107° |
| 2026-04-24 13:38 | 66.28842 | 128.63829 | 37280 ft | 481 kts | 107° |
| 2026-04-24 13:39 | 66.27028 | 128.79826 | 37284 ft | 482 kts | 107° |
| 2026-04-24 13:39 | 66.25194 | 128.95823 | 37287 ft | 482 kts | 107° |
| 2026-04-24 13:40 | 66.23029 | 129.11511 | 37284 ft | 480 kts | 112° |
| 2026-04-24 13:40 | 66.20628 | 129.26956 | 37274 ft | 481 kts | 112° |
| 2026-04-24 13:41 | 66.18249 | 129.42420 | 37287 ft | 481 kts | 112° |
| 2026-04-24 13:41 | 66.15868 | 129.57867 | 37298 ft | 481 kts | 112° |
| 2026-04-24 13:42 | 66.13476 | 129.73282 | 37296 ft | 480 kts | 112° |
| 2026-04-24 13:42 | 66.11074 | 129.88659 | 37292 ft | 480 kts | 112° |
| 2026-04-24 13:43 | 66.08659 | 130.03987 | 37299 ft | 479 kts | 113° |
| 2026-04-24 13:43 | 66.06228 | 130.19288 | 37294 ft | 480 kts | 113° |
| 2026-04-24 13:44 | 66.03782 | 130.34558 | 37291 ft | 479 kts | 113° |
| 2026-04-24 13:44 | 66.01321 | 130.49788 | 37289 ft | 480 kts | 113° |
| 2026-04-24 13:45 | 65.98844 | 130.65004 | 37287 ft | 480 kts | 113° |
| 2026-04-24 13:45 | 65.96354 | 130.80175 | 37286 ft | 479 kts | 114° |
| 2026-04-24 13:46 | 65.93847 | 130.95325 | 37279 ft | 479 kts | 114° |
| 2026-04-24 13:46 | 65.91328 | 131.10450 | 37275 ft | 479 kts | 114° |
| 2026-04-24 13:47 | 65.88796 | 131.25524 | 37283 ft | 479 kts | 114° |
| 2026-04-24 13:47 | 65.86249 | 131.40582 | 37278 ft | 479 kts | 114° |
| 2026-04-24 13:48 | 65.83687 | 131.55592 | 37276 ft | 479 kts | 114° |
| 2026-04-24 13:48 | 65.81106 | 131.70606 | 37278 ft | 480 kts | 114° |
| 2026-04-24 13:49 | 65.78513 | 131.85573 | 37266 ft | 479 kts | 114° |
| 2026-04-24 13:49 | 65.75910 | 132.00510 | 37274 ft | 479 kts | 115° |
| 2026-04-24 13:50 | 65.73727 | 132.12907 | 37274 ft | 479 kts | 115° |
| 2026-04-24 13:50 | 65.71093 | 132.27778 | 37269 ft | 479 kts | 115° |
| 2026-04-24 13:51 | 65.68447 | 132.42620 | 37273 ft | 479 kts | 115° |
| 2026-04-24 13:51 | 65.65786 | 132.57432 | 37269 ft | 479 kts | 115° |
| 2026-04-24 13:52 | 65.63118 | 132.72194 | 37256 ft | 478 kts | 115° |
| 2026-04-24 13:52 | 65.60434 | 132.86939 | 37268 ft | 478 kts | 115° |
| 2026-04-24 13:53 | 65.57734 | 133.01641 | 37270 ft | 478 kts | 115° |
| 2026-04-24 13:53 | 65.55021 | 133.16308 | 37279 ft | 478 kts | 115° |
| 2026-04-24 13:54 | 65.52294 | 133.30959 | 37264 ft | 479 kts | 116° |
| 2026-04-24 13:54 | 65.49551 | 133.45575 | 37263 ft | 478 kts | 116° |
| 2026-04-24 13:55 | 65.46796 | 133.60152 | 37263 ft | 478 kts | 116° |
| 2026-04-24 13:55 | 65.44024 | 133.74721 | 37267 ft | 479 kts | 116° |
| 2026-04-24 13:56 | 65.41237 | 133.89258 | 37266 ft | 479 kts | 116° |
| 2026-04-24 13:56 | 65.38433 | 134.03778 | 37259 ft | 480 kts | 116° |
| 2026-04-24 13:57 | 65.35615 | 134.18270 | 37261 ft | 480 kts | 116° |
| 2026-04-24 13:57 | 65.32785 | 134.32732 | 37263 ft | 480 kts | 116° |
| 2026-04-24 13:58 | 65.29939 | 134.47171 | 37266 ft | 480 kts | 116° |
| 2026-04-24 13:58 | 65.27079 | 134.61588 | 37267 ft | 480 kts | 116° |
| 2026-04-24 13:59 | 65.24202 | 134.75958 | 37262 ft | 480 kts | 117° |
| 2026-04-24 13:59 | 65.21297 | 134.90289 | 37265 ft | 480 kts | 117° |
| 2026-04-24 14:00 | 65.18380 | 135.04596 | 37259 ft | 480 kts | 117° |
| 2026-04-24 14:00 | 65.15457 | 135.18866 | 37268 ft | 480 kts | 117° |
| 2026-04-24 14:01 | 65.12518 | 135.33111 | 37261 ft | 480 kts | 117° |
| 2026-04-24 14:01 | 65.09564 | 135.47330 | 37259 ft | 480 kts | 117° |
| 2026-04-24 14:02 | 65.06609 | 135.61492 | 37256 ft | 480 kts | 117° |
| 2026-04-24 14:02 | 65.03637 | 135.75656 | 37243 ft | 480 kts | 117° |
| 2026-04-24 14:03 | 65.00655 | 135.89771 | 37248 ft | 480 kts | 117° |
| 2026-04-24 14:03 | 64.97656 | 136.03866 | 37240 ft | 480 kts | 117° |
| 2026-04-24 14:04 | 64.94641 | 136.17933 | 37240 ft | 480 kts | 117° |
| 2026-04-24 14:04 | 64.91620 | 136.31969 | 37240 ft | 480 kts | 118° |
| 2026-04-24 14:05 | 64.88582 | 136.45969 | 37230 ft | 480 kts | 118° |
| 2026-04-24 14:05 | 64.85527 | 136.59952 | 37228 ft | 480 kts | 118° |
| 2026-04-24 14:06 | 64.82459 | 136.73911 | 37241 ft | 480 kts | 118° |
| 2026-04-24 14:06 | 64.79379 | 136.87827 | 37224 ft | 480 kts | 118° |
| 2026-04-24 14:07 | 64.76287 | 137.01731 | 37222 ft | 480 kts | 118° |
| 2026-04-24 14:07 | 64.73197 | 137.15603 | 37224 ft | 481 kts | 117° |
| 2026-04-24 14:08 | 64.70229 | 137.29606 | 37219 ft | 481 kts | 116° |
| 2026-04-24 14:08 | 64.67279 | 137.43650 | 37223 ft | 482 kts | 116° |
| 2026-04-24 14:09 | 64.64293 | 137.57665 | 37220 ft | 483 kts | 116° |
| 2026-04-24 14:09 | 64.61276 | 137.71679 | 37223 ft | 484 kts | 116° |
| 2026-04-24 14:10 | 64.58240 | 137.85683 | 37216 ft | 484 kts | 117° |
| 2026-04-24 14:10 | 64.55190 | 137.99660 | 37214 ft | 485 kts | 116° |
| 2026-04-24 14:11 | 64.52129 | 138.13620 | 37214 ft | 485 kts | 116° |
| 2026-04-24 14:12 | 64.47506 | 138.34516 | 37211 ft | 485 kts | 117° |
| 2026-04-24 14:12 | 64.44416 | 138.48394 | 37224 ft | 484 kts | 117° |
| 2026-04-24 14:13 | 64.41317 | 138.62234 | 37222 ft | 484 kts | 117° |
| 2026-04-24 14:13 | 64.38205 | 138.76052 | 37244 ft | 484 kts | 117° |
| 2026-04-24 14:14 | 64.35081 | 138.89837 | 37246 ft | 485 kts | 117° |
| 2026-04-24 14:14 | 64.30359 | 139.10497 | 37264 ft | 486 kts | 117° |
| 2026-04-24 14:15 | 64.27194 | 139.24230 | 37276 ft | 486 kts | 117° |
| 2026-04-24 14:15 | 64.24011 | 139.37953 | 37295 ft | 486 kts | 117° |
| 2026-04-24 14:16 | 64.20819 | 139.51640 | 37297 ft | 486 kts | 117° |
| 2026-04-24 14:17 | 64.16018 | 139.72055 | 37311 ft | 488 kts | 117° |
| 2026-04-24 14:17 | 64.11149 | 139.92564 | 37308 ft | 489 kts | 117° |
| 2026-04-24 14:18 | 64.07863 | 140.06290 | 37308 ft | 489 kts | 117° |
| 2026-04-24 14:18 | 64.04606 | 140.19824 | 37326 ft | 490 kts | 117° |
| 2026-04-24 14:19 | 64.01306 | 140.33444 | 37318 ft | 491 kts | 117° |
| 2026-04-24 14:19 | 63.97994 | 140.47034 | 37307 ft | 491 kts | 117° |
| 2026-04-24 14:20 | 63.94670 | 140.60601 | 37309 ft | 490 kts | 117° |
| 2026-04-24 14:20 | 63.91325 | 140.74131 | 37291 ft | 491 kts | 117° |
| 2026-04-24 14:21 | 63.87942 | 140.87590 | 37303 ft | 491 kts | 117° |
| 2026-04-24 14:21 | 63.84545 | 141.01043 | 37268 ft | 492 kts | 117° |
| 2026-04-24 14:22 | 63.81137 | 141.14479 | 37269 ft | 492 kts | 117° |
| 2026-04-24 14:23 | 63.76028 | 141.34594 | 37254 ft | 492 kts | 117° |
| 2026-04-24 14:23 | 63.72614 | 141.47958 | 37258 ft | 491 kts | 117° |
| 2026-04-24 14:24 | 63.69182 | 141.61302 | 37260 ft | 492 kts | 117° |
| 2026-04-24 14:24 | 63.65737 | 141.74614 | 37266 ft | 492 kts | 117° |
| 2026-04-24 14:25 | 63.62836 | 141.85758 | 37247 ft | 493 kts | 117° |
| 2026-04-24 14:25 | 63.58797 | 142.01197 | 37242 ft | 493 kts | 117° |
| 2026-04-24 14:26 | 63.55304 | 142.14461 | 37234 ft | 494 kts | 117° |
| 2026-04-24 14:26 | 63.51798 | 142.27686 | 37232 ft | 493 kts | 117° |
| 2026-04-24 14:27 | 63.48278 | 142.40890 | 37225 ft | 494 kts | 117° |
| 2026-04-24 14:27 | 63.44742 | 142.54077 | 37228 ft | 495 kts | 118° |
| 2026-04-24 14:28 | 63.41194 | 142.67233 | 37230 ft | 495 kts | 118° |
| 2026-04-24 14:28 | 63.37632 | 142.80360 | 37225 ft | 495 kts | 118° |
| 2026-04-24 14:29 | 63.34059 | 142.93456 | 37221 ft | 495 kts | 118° |
| 2026-04-24 14:29 | 63.30476 | 143.06520 | 37234 ft | 494 kts | 118° |
| 2026-04-24 14:30 | 63.27482 | 143.17351 | 37223 ft | 495 kts | 119° |
| 2026-04-24 14:30 | 63.22549 | 143.31554 | 37235 ft | 499 kts | 127° |
| 2026-04-24 14:31 | 63.18046 | 143.43258 | 37226 ft | 499 kts | 127° |
| 2026-04-24 14:31 | 63.13550 | 143.54987 | 37222 ft | 500 kts | 127° |
| 2026-04-24 14:32 | 63.09824 | 143.64750 | 37231 ft | 501 kts | 127° |
| 2026-04-24 14:32 | 63.05331 | 143.76489 | 37220 ft | 501 kts | 127° |
| 2026-04-24 14:33 | 63.00832 | 143.88186 | 37220 ft | 501 kts | 127° |
| 2026-04-24 14:33 | 62.96312 | 143.99862 | 37242 ft | 501 kts | 127° |
| 2026-04-24 14:34 | 62.91776 | 144.11522 | 37219 ft | 503 kts | 126° |
| 2026-04-24 14:34 | 62.87218 | 144.23181 | 37218 ft | 503 kts | 127° |
| 2026-04-24 14:35 | 62.82648 | 144.34805 | 37221 ft | 504 kts | 127° |
| 2026-04-24 14:35 | 62.78062 | 144.46400 | 37219 ft | 504 kts | 127° |
| 2026-04-24 14:36 | 62.73467 | 144.57970 | 37227 ft | 505 kts | 127° |
| 2026-04-24 14:36 | 62.68853 | 144.69532 | 37236 ft | 506 kts | 127° |
| 2026-04-24 14:37 | 62.64224 | 144.81059 | 37232 ft | 506 kts | 127° |
| 2026-04-24 14:37 | 62.59580 | 144.92571 | 37221 ft | 506 kts | 127° |
| 2026-04-24 14:38 | 62.54933 | 145.04037 | 37223 ft | 506 kts | 127° |
| 2026-04-24 14:38 | 62.50274 | 145.15469 | 37242 ft | 506 kts | 127° |
| 2026-04-24 14:39 | 62.45593 | 145.26857 | 37231 ft | 506 kts | 127° |
| 2026-04-24 14:39 | 62.40899 | 145.38183 | 37226 ft | 506 kts | 128° |
| 2026-04-24 14:40 | 62.36199 | 145.49483 | 37224 ft | 506 kts | 128° |
| 2026-04-24 14:40 | 62.31493 | 145.60732 | 37229 ft | 506 kts | 128° |
| 2026-04-24 14:41 | 62.26782 | 145.71956 | 37238 ft | 506 kts | 128° |
| 2026-04-24 14:41 | 62.22038 | 145.83198 | 37230 ft | 507 kts | 128° |
| 2026-04-24 14:42 | 62.17300 | 145.94376 | 37227 ft | 507 kts | 128° |
| 2026-04-24 14:42 | 62.12553 | 146.05514 | 37238 ft | 507 kts | 128° |
| 2026-04-24 14:43 | 62.07803 | 146.16624 | 37266 ft | 507 kts | 128° |
| 2026-04-24 14:43 | 62.03037 | 146.27726 | 37233 ft | 507 kts | 128° |
| 2026-04-24 14:44 | 61.98262 | 146.38804 | 37227 ft | 508 kts | 128° |
| 2026-04-24 14:44 | 61.93471 | 146.49856 | 37228 ft | 509 kts | 128° |
| 2026-04-24 14:45 | 61.88664 | 146.60888 | 37223 ft | 509 kts | 128° |
| 2026-04-24 14:45 | 61.83846 | 146.71897 | 37236 ft | 510 kts | 128° |
| 2026-04-24 14:46 | 61.79008 | 146.82891 | 37233 ft | 510 kts | 128° |
| 2026-04-24 14:46 | 61.74157 | 146.93853 | 37260 ft | 511 kts | 129° |
| 2026-04-24 14:47 | 61.69294 | 147.04799 | 37236 ft | 511 kts | 129° |
| 2026-04-24 14:47 | 61.64429 | 147.15695 | 37245 ft | 510 kts | 129° |
| 2026-04-24 14:48 | 61.59557 | 147.26550 | 37227 ft | 510 kts | 129° |
| 2026-04-24 14:48 | 61.54683 | 147.37358 | 37218 ft | 509 kts | 129° |
| 2026-04-24 14:49 | 61.49811 | 147.48108 | 37215 ft | 509 kts | 129° |
| 2026-04-24 14:49 | 61.44930 | 147.58826 | 37207 ft | 509 kts | 129° |
| 2026-04-24 14:50 | 61.40036 | 147.69522 | 37208 ft | 509 kts | 129° |
| 2026-04-24 14:50 | 61.35140 | 147.80182 | 37203 ft | 509 kts | 129° |
| 2026-04-24 14:51 | 61.30228 | 147.90805 | 37201 ft | 509 kts | 130° |
| 2026-04-24 14:51 | 61.25296 | 148.01364 | 37215 ft | 509 kts | 130° |
| 2026-04-24 14:52 | 61.20468 | 148.11652 | 37223 ft | 510 kts | 130° |
| 2026-04-24 14:52 | 61.15524 | 148.22152 | 37216 ft | 509 kts | 130° |
| 2026-04-24 14:53 | 61.10609 | 148.32544 | 37211 ft | 508 kts | 130° |
| 2026-04-24 14:53 | 61.08134 | 148.37758 | 36981 ft | 511 kts | 130° |
| 2026-04-24 14:53 | 61.05587 | 148.43120 | 36143 ft | 518 kts | 130° |
| 2026-04-24 14:53 | 61.03063 | 148.48413 | 35332 ft | 518 kts | 130° |
| 2026-04-24 14:54 | 61.00563 | 148.53637 | 34452 ft | 520 kts | 130° |
| 2026-04-24 14:54 | 60.97982 | 148.59020 | 33396 ft | 523 kts | 129° |
| 2026-04-24 14:54 | 60.95425 | 148.64343 | 32353 ft | 524 kts | 129° |
| 2026-04-24 14:54 | 60.92889 | 148.69609 | 31297 ft | 525 kts | 129° |
| 2026-04-24 14:55 | 60.91152 | 148.73208 | 30649 ft | 525 kts | 129° |
| 2026-04-24 14:55 | 60.87762 | 148.80207 | 29653 ft | 518 kts | 129° |
| 2026-04-24 14:55 | 60.85204 | 148.85472 | 28925 ft | 511 kts | 129° |
| 2026-04-24 14:55 | 60.82713 | 148.90597 | 28245 ft | 504 kts | 129° |
| 2026-04-24 14:56 | 60.80250 | 148.95657 | 27596 ft | 498 kts | 129° |
| 2026-04-24 14:56 | 60.77814 | 149.00647 | 26952 ft | 492 kts | 129° |
| 2026-04-24 14:56 | 60.75409 | 149.05566 | 26346 ft | 487 kts | 129° |
| 2026-04-24 14:56 | 60.73025 | 149.10438 | 25684 ft | 482 kts | 130° |
| 2026-04-24 14:57 | 60.70667 | 149.15250 | 25051 ft | 477 kts | 130° |
| 2026-04-24 14:57 | 60.68334 | 149.20005 | 24434 ft | 472 kts | 130° |
| 2026-04-24 14:57 | 60.66023 | 149.24713 | 23821 ft | 467 kts | 130° |
| 2026-04-24 14:57 | 60.63731 | 149.29372 | 23119 ft | 463 kts | 130° |
| 2026-04-24 14:58 | 60.61466 | 149.33965 | 22484 ft | 457 kts | 130° |
| 2026-04-24 14:58 | 60.59227 | 149.38494 | 21892 ft | 451 kts | 130° |
| 2026-04-24 14:58 | 60.57014 | 149.42960 | 21305 ft | 445 kts | 130° |
| 2026-04-24 14:58 | 60.54827 | 149.47363 | 20722 ft | 440 kts | 131° |
| 2026-04-24 14:59 | 60.52664 | 149.51717 | 20173 ft | 435 kts | 131° |
| 2026-04-24 14:59 | 60.50525 | 149.56008 | 19616 ft | 431 kts | 131° |
| 2026-04-24 14:59 | 60.48398 | 149.60265 | 19031 ft | 427 kts | 131° |
| 2026-04-24 14:59 | 60.46293 | 149.64474 | 18460 ft | 424 kts | 131° |
| 2026-04-24 15:00 | 60.44203 | 149.68642 | 17828 ft | 420 kts | 131° |
| 2026-04-24 15:00 | 60.42135 | 149.72763 | 17261 ft | 415 kts | 132° |
| 2026-04-24 15:00 | 60.40089 | 149.76831 | 16680 ft | 410 kts | 132° |
| 2026-04-24 15:00 | 60.38063 | 149.80858 | 16147 ft | 406 kts | 132° |
| 2026-04-24 15:01 | 60.36056 | 149.84834 | 15586 ft | 403 kts | 132° |
| 2026-04-24 15:01 | 60.34063 | 149.88771 | 15013 ft | 400 kts | 132° |
| 2026-04-24 15:01 | 60.32178 | 149.92878 | 14438 ft | 397 kts | 127° |
| 2026-04-24 15:01 | 60.30469 | 149.97074 | 13846 ft | 379 kts | 126° |
| 2026-04-24 15:02 | 60.28818 | 150.01211 | 13277 ft | 378 kts | 126° |
| 2026-04-24 15:02 | 60.27172 | 150.05233 | 12738 ft | 376 kts | 127° |
| 2026-04-24 15:02 | 60.25493 | 150.09247 | 12150 ft | 373 kts | 128° |
| 2026-04-24 15:02 | 60.23799 | 150.13147 | 11585 ft | 365 kts | 133° |
| 2026-04-24 15:03 | 60.22450 | 150.15265 | 11250 ft | 366 kts | 149° |
| 2026-04-24 15:03 | 60.19341 | 150.17597 | 10596 ft | 357 kts | 160° |
| 2026-04-24 15:03 | 60.17048 | 150.19192 | 9973 ft | 339 kts | 159° |
| 2026-04-24 15:03 | 60.14917 | 150.20746 | 9567 ft | 313 kts | 158° |
| 2026-04-24 15:04 | 60.12943 | 150.22197 | 9104 ft | 294 kts | 158° |
| 2026-04-24 15:04 | 60.11060 | 150.23575 | 8554 ft | 284 kts | 157° |
| 2026-04-24 15:04 | 60.09192 | 150.24944 | 8122 ft | 288 kts | 157° |
| 2026-04-24 15:04 | 60.07305 | 150.26319 | 7660 ft | 290 kts | 157° |
| 2026-04-24 15:05 | 60.05418 | 150.27693 | 7224 ft | 283 kts | 157° |
| 2026-04-24 15:05 | 60.03611 | 150.29001 | 6830 ft | 274 kts | 156° |
| 2026-04-24 15:05 | 60.01790 | 150.30086 | 6398 ft | 275 kts | 171° |
| 2026-04-24 15:05 | 59.99865 | 150.29990 | 5991 ft | 279 kts | 183° |
| 2026-04-24 15:06 | 59.97921 | 150.29678 | 5570 ft | 281 kts | 181° |
| 2026-04-24 15:06 | 59.96007 | 150.29464 | 5183 ft | 268 kts | 180° |
| 2026-04-24 15:06 | 59.94218 | 150.29852 | 4703 ft | 249 kts | 153° |
| 2026-04-24 15:06 | 59.92934 | 150.31768 | 4383 ft | 217 kts | 117° |
| 2026-04-24 15:07 | 59.92441 | 150.34391 | 4202 ft | 193 kts | 94° |
| 2026-04-24 15:07 | 59.92203 | 150.36975 | 3956 ft | 188 kts | 94° |
| 2026-04-24 15:07 | 59.92005 | 150.39518 | 3660 ft | 181 kts | 91° |
| 2026-04-24 15:07 | 59.91900 | 150.41926 | 3429 ft | 169 kts | 88° |
| 2026-04-24 15:08 | 59.91831 | 150.44194 | 3191 ft | 158 kts | 88° |
| 2026-04-24 15:08 | 59.91773 | 150.46403 | 2967 ft | 160 kts | 88° |
| 2026-04-24 15:08 | 59.91716 | 150.48575 | 2740 ft | 152 kts | 88° |
| 2026-04-24 15:08 | 59.91663 | 150.50615 | 2534 ft | 144 kts | 88° |
| 2026-04-24 15:09 | 59.91610 | 150.52614 | 2299 ft | 145 kts | 89° |
| 2026-04-24 15:09 | 59.91557 | 150.54641 | 2062 ft | 148 kts | 89° |
| 2026-04-24 15:09 | 59.91502 | 150.56691 | 1822 ft | 148 kts | 90° |
| 2026-04-24 15:09 | 59.91447 | 150.58731 | 1589 ft | 147 kts | 90° |
| 2026-04-24 15:10 | 59.91394 | 150.60750 | 1387 ft | 146 kts | 90° |
| 2026-04-24 15:10 | 59.91342 | 150.62767 | 1200 ft | 146 kts | 91° |
| 2026-04-24 15:10 | 59.91287 | 150.64784 | 1013 ft | 145 kts | 91° |
| 2026-04-24 15:10 | 59.91241 | 150.66793 | 819 ft | 145 kts | 92° |
| 2026-04-24 15:11 | 59.91188 | 150.68791 | 637 ft | 144 kts | 93° |
| 2026-04-24 15:11 | 59.91137 | 150.70694 | 589 ft | 125 kts | 92° |
| 2026-04-24 15:11 | 59.91093 | 150.72222 | 586 ft | 93 kts | 93° |
| 2026-04-24 15:11 | 59.91068 | 150.73104 | 591 ft | 14 kts | 93° |